Time;durP1;ratioP1;P1;durP2;ratioP2;P2;SDS_P1;SDS_P2;PMS_P1;PMS_P2;Temp;Humidity;BMP_temperature;BMP_pressure;BME280_temperature;BME280_humidity;BME280_pressure;Samples;Min_cycle;Max_cycle;Signal;HPM_P1;HPM_P2
2021/11/22 00:01:42;;;;;;;1.10;0.75;;;17.80;68.60;;;;;;10580375;28;20028;-57
2021/11/22 00:06:43;;;;;;;3.00;0.80;;;17.80;68.50;;;;;;10579425;28;20085;-57
2021/11/22 00:11:44;;;;;;;1.60;0.80;;;17.80;68.50;;;;;;10580031;28;20471;-56
2021/11/22 00:16:45;;;;;;;1.20;0.65;;;17.70;68.50;;;;;;10580039;28;20336;-57
2021/11/22 00:21:46;;;;;;;2.33;0.80;;;17.70;68.60;;;;;;10561761;28;20023;-57
2021/11/22 00:26:47;;;;;;;1.60;0.50;;;17.70;68.70;;;;;;10561661;28;20028;-57
2021/11/22 00:31:50;;;;;;;1.60;0.82;;;17.70;68.60;;;;;;10565570;28;20031;-57
2021/11/22 00:36:50;;;;;;;1.10;0.50;;;17.70;68.60;;;;;;10578822;28;20039;-57
2021/11/22 00:41:52;;;;;;;0.80;0.50;;;17.70;68.30;;;;;;10560918;28;20027;-56
2021/11/22 00:46:52;;;;;;;2.22;0.50;;;17.80;68.20;;;;;;10578884;28;20379;-57
2021/11/22 00:51:53;;;;;;;2.63;0.65;;;17.80;68.20;;;;;;10560259;28;20107;-57
2021/11/22 00:56:54;;;;;;;2.00;1.27;;;17.80;68.30;;;;;;10560268;28;20106;-56
2021/11/22 01:01:54;;;;;;;1.73;0.80;;;17.70;68.40;;;;;;10543242;28;20442;-57
2021/11/22 01:06:55;;;;;;;1.98;0.43;;;17.70;68.20;;;;;;10568877;28;20368;-55
2021/11/22 01:11:56;;;;;;;0.95;0.40;;;17.70;68.20;;;;;;10560361;28;20439;-56
2021/11/22 01:16:57;;;;;;;2.08;0.40;;;17.70;68.30;;;;;;10578272;28;20578;-54
2021/11/22 01:21:58;;;;;;;1.08;0.32;;;17.80;68.00;;;;;;10559584;28;20031;-55
2021/11/22 01:26:59;;;;;;;0.80;0.40;;;17.80;67.80;;;;;;10559574;28;20085;-56
2021/11/22 01:32:00;;;;;;;2.50;0.55;;;17.80;68.00;;;;;;10578098;28;20095;-56
2021/11/22 01:37:01;;;;;;;0.77;0.30;;;17.80;67.90;;;;;;10534046;28;20048;-57
2021/11/22 01:42:02;;;;;;;1.10;0.55;;;17.80;68.00;;;;;;10534184;28;20025;-56
2021/11/22 01:47:03;;;;;;;1.38;0.68;;;17.80;67.90;;;;;;10535889;28;20032;-57
2021/11/22 01:52:04;;;;;;;4.97;0.60;;;17.80;67.90;;;;;;10538716;28;20492;-57
2021/11/22 01:57:05;;;;;;;0.75;0.38;;;17.80;67.70;;;;;;10543398;28;20143;-55
2021/11/22 02:02:08;;;;;;;2.35;0.47;;;17.80;67.70;;;;;;10543101;28;20498;-56
2021/11/22 02:07:09;;;;;;;0.65;0.40;;;17.80;68.20;;;;;;10541895;28;20386;-57
2021/11/22 02:12:10;;;;;;;1.42;0.47;;;17.80;67.60;;;;;;10543065;28;20028;-56
2021/11/22 02:17:11;;;;;;;1.38;0.60;;;17.80;67.60;;;;;;10541378;28;20412;-55
2021/11/22 02:22:16;;;;;;;1.05;0.73;;;17.70;67.70;;;;;;10542302;28;20032;-56
2021/11/22 02:27:17;;;;;;;0.50;0.30;;;17.80;67.60;;;;;;10541187;28;20387;-57
2021/11/22 02:32:17;;;;;;;2.05;0.68;;;17.80;67.50;;;;;;10542456;28;20111;-56
2021/11/22 02:37:18;;;;;;;0.75;0.38;;;17.80;67.40;;;;;;10540328;28;20058;-56
2021/11/22 02:42:29;;;;;;;0.80;0.40;;;17.90;67.30;;;;;;10541761;28;20024;-56
2021/11/22 02:47:30;;;;;;;0.90;0.30;;;17.80;67.40;;;;;;10541485;28;20571;-57
2021/11/22 02:52:31;;;;;;;0.60;0.30;;;17.80;67.40;;;;;;10541270;28;20110;-56
2021/11/22 02:57:32;;;;;;;0.90;0.40;;;17.90;67.30;;;;;;10539910;28;20032;-53
2021/11/22 03:02:32;;;;;;;0.60;0.30;;;17.90;67.10;;;;;;10540791;28;20028;-53
2021/11/22 03:07:33;;;;;;;1.13;0.45;;;17.90;67.10;;;;;;10539324;28;20186;-53
2021/11/22 03:12:35;;;;;;;1.00;0.38;;;17.80;67.20;;;;;;10539113;28;20047;-53
2021/11/22 03:17:36;;;;;;;0.68;0.30;;;17.80;67.30;;;;;;10538965;28;20126;-54
2021/11/22 03:22:37;;;;;;;0.60;0.30;;;17.80;67.20;;;;;;10540005;28;20032;-53
2021/11/22 03:27:42;;;;;;;0.80;0.30;;;17.80;67.20;;;;;;10538621;28;20024;-54
2021/11/22 03:32:43;;;;;;;0.55;0.38;;;17.80;67.20;;;;;;10539393;28;20051;-53
2021/11/22 03:37:45;;;;;;;0.80;0.35;;;17.80;67.10;;;;;;10581429;28;20019;-54
2021/11/22 03:43:00;;;;;;;0.73;0.38;;;17.70;67.20;;;;;;10581406;28;20034;-54
2021/11/22 03:48:01;;;;;;;0.55;0.30;;;17.80;67.10;;;;;;10565130;28;20032;-53
2021/11/22 03:53:02;;;;;;;0.20;0.20;;;17.80;67.10;;;;;;10579669;28;20024;-54
2021/11/22 03:58:03;;;;;;;0.77;0.35;;;17.70;67.10;;;;;;10562597;28;20056;-53
2021/11/22 04:03:04;;;;;;;0.35;0.20;;;17.80;67.00;;;;;;10580377;28;20539;-54
2021/11/22 04:08:07;;;;;;;0.47;0.20;;;17.80;66.90;;;;;;10562334;28;20421;-54
2021/11/22 04:13:08;;;;;;;0.43;0.20;;;17.80;66.90;;;;;;10579457;28;20036;-54
2021/11/22 04:18:09;;;;;;;0.57;0.20;;;17.80;66.70;;;;;;10580047;28;20016;-53
2021/11/22 04:23:11;;;;;;;1.95;0.30;;;17.80;66.80;;;;;;10580615;28;20367;-55
2021/11/22 04:28:12;;;;;;;1.55;0.40;;;17.80;67.00;;;;;;10579403;28;20039;-53
2021/11/22 04:33:13;;;;;;;0.85;0.22;;;17.80;66.80;;;;;;10565300;28;20053;-55
2021/11/22 04:38:13;;;;;;;0.32;0.17;;;17.80;66.80;;;;;;10578960;28;20032;-55
2021/11/22 04:43:15;;;;;;;0.50;0.20;;;17.70;66.80;;;;;;10578903;28;20026;-54
2021/11/22 04:48:16;;;;;;;0.38;0.22;;;17.80;66.80;;;;;;10561076;28;20024;-54
2021/11/22 04:53:17;;;;;;;1.20;0.40;;;17.80;66.80;;;;;;10563211;28;20035;-55
2021/11/22 04:58:17;;;;;;;0.50;0.30;;;17.80;66.60;;;;;;10578327;28;20034;-53
2021/11/22 05:03:18;;;;;;;0.32;0.30;;;17.80;66.70;;;;;;10578218;28;20102;-55
2021/11/22 05:08:19;;;;;;;1.05;0.38;;;17.80;66.50;;;;;;10578239;28;20097;-53
2021/11/22 05:13:20;;;;;;;0.85;0.40;;;17.80;66.50;;;;;;10578444;28;20040;-55
2021/11/22 05:18:21;;;;;;;0.73;0.22;;;17.80;66.40;;;;;;10559868;28;20023;-54
2021/11/22 05:23:22;;;;;;;0.70;0.20;;;17.80;66.40;;;;;;10576454;28;20028;-52
2021/11/22 05:28:22;;;;;;;0.40;0.10;;;17.80;66.30;;;;;;10584495;28;20395;-53
2021/11/22 05:33:23;;;;;;;0.38;0.20;;;17.80;66.20;;;;;;10547116;28;20043;-53
2021/11/22 05:38:24;;;;;;;1.10;0.25;;;17.90;66.10;;;;;;10581260;28;20035;-55
2021/11/22 05:43:25;;;;;;;0.55;0.20;;;17.90;65.90;;;;;;10586594;28;20026;-53
2021/11/22 05:48:26;;;;;;;1.92;0.30;;;18.00;65.60;;;;;;10567950;28;20034;-53
2021/11/22 05:53:34;;;;;;;1.00;0.30;;;18.10;65.70;;;;;;10567906;28;20038;-53
2021/11/22 05:58:37;;;;;;;4.72;0.50;;;18.20;65.70;;;;;;10585645;28;20047;-52
2021/11/22 06:03:38;;;;;;;1.70;0.30;;;18.30;65.70;;;;;;10583157;28;20082;-55
2021/11/22 06:08:39;;;;;;;1.17;0.30;;;18.40;65.20;;;;;;10586216;28;20042;-54
2021/11/22 06:13:40;;;;;;;0.85;0.30;;;18.50;64.80;;;;;;10585165;28;20030;-54
2021/11/22 06:18:41;;;;;;;3.58;0.55;;;18.50;64.50;;;;;;10585229;28;20379;-54
2021/11/22 06:23:42;;;;;;;1.85;0.50;;;18.40;64.70;;;;;;10566550;28;20103;-50
2021/11/22 06:28:42;;;;;;;1.85;0.40;;;18.50;64.90;;;;;;10584332;28;20031;-50
2021/11/22 06:33:43;;;;;;;6.10;0.40;;;18.60;65.30;;;;;;10566258;28;20048;-52
2021/11/22 06:38:44;;;;;;;2.97;0.40;;;18.50;65.70;;;;;;10565237;28;20039;-54
2021/11/22 06:43:45;;;;;;;4.38;0.45;;;18.60;65.20;;;;;;10583900;28;20535;-54
2021/11/22 06:48:45;;;;;;;6.55;0.80;;;18.50;65.20;;;;;;10565585;28;20034;-54
2021/11/22 06:53:46;;;;;;;7.18;1.35;;;18.60;65.10;;;;;;10583352;28;20487;-55
2021/11/22 06:58:47;;;;;;;5.10;1.00;;;18.50;64.60;;;;;;10554525;28;20023;-55
2021/11/22 07:03:48;;;;;;;6.07;1.67;;;18.50;63.90;;;;;;10565812;28;20081;-53
2021/11/22 07:08:48;;;;;;;4.38;0.57;;;18.70;63.80;;;;;;10581698;28;20110;-56
2021/11/22 07:13:50;;;;;;;2.47;0.38;;;18.70;63.70;;;;;;10564019;28;20028;-55
2021/11/22 07:18:50;;;;;;;3.42;0.75;;;18.70;63.50;;;;;;10580714;28;20023;-56
2021/11/22 07:23:51;;;;;;;5.10;0.90;;;18.80;63.60;;;;;;10581651;28;20032;-56
2021/11/22 07:28:52;;;;;;;1.83;0.30;;;18.80;63.50;;;;;;10563069;28;20035;-56
2021/11/22 07:33:53;;;;;;;4.75;0.50;;;18.80;63.50;;;;;;10568953;28;20055;-55
2021/11/22 07:38:53;;;;;;;1.75;0.43;;;18.70;63.50;;;;;;10564602;28;20084;-56
2021/11/22 07:43:54;;;;;;;2.85;0.50;;;18.80;63.60;;;;;;10582897;28;20038;-55
2021/11/22 07:48:55;;;;;;;2.00;0.40;;;18.80;63.60;;;;;;10580669;28;20046;-55
2021/11/22 07:53:56;;;;;;;0.60;0.40;;;18.80;63.50;;;;;;10580746;28;20095;-56
2021/11/22 07:58:57;;;;;;;1.38;0.40;;;18.80;63.30;;;;;;10579745;28;20122;-56
2021/11/22 08:03:58;;;;;;;1.83;0.52;;;18.70;63.50;;;;;;10545192;28;20031;-54
2021/11/22 08:08:59;;;;;;;1.00;0.30;;;18.80;63.40;;;;;;10579958;28;20106;-56
2021/11/22 08:14:00;;;;;;;1.85;0.50;;;18.80;63.40;;;;;;10580437;28;20056;-55
2021/11/22 08:19:01;;;;;;;0.77;0.30;;;18.80;63.30;;;;;;10579723;28;20028;-54
2021/11/22 08:24:02;;;;;;;2.42;0.40;;;18.80;63.20;;;;;;10580441;28;20076;-56
2021/11/22 08:29:03;;;;;;;4.78;0.43;;;18.80;63.30;;;;;;10580612;28;20336;-56
2021/11/22 08:34:04;;;;;;;1.70;0.43;;;18.80;63.20;;;;;;10566705;28;20047;-55
2021/11/22 08:39:05;;;;;;;1.30;0.50;;;18.90;63.20;;;;;;10561360;28;20047;-56
2021/11/22 08:44:06;;;;;;;3.00;0.30;;;18.90;63.20;;;;;;10579559;28;20474;-56
2021/11/22 08:49:08;;;;;;;2.35;0.63;;;18.90;63.20;;;;;;10580104;28;20024;-56
2021/11/22 08:54:09;;;;;;;1.67;0.77;;;18.90;63.80;;;;;;10561748;28;20020;-55
2021/11/22 08:59:10;;;;;;;0.68;0.20;;;18.90;63.20;;;;;;10561993;28;20094;-56
2021/11/22 09:04:11;;;;;;;1.60;0.30;;;18.90;63.20;;;;;;10560311;28;20581;-55
2021/11/22 09:09:13;;;;;;;0.88;0.35;;;18.90;63.30;;;;;;10578143;28;20020;-56
2021/11/22 09:14:14;;;;;;;1.15;0.30;;;18.90;63.40;;;;;;10578156;28;20020;-56
2021/11/22 09:19:15;;;;;;;0.68;0.20;;;18.90;63.30;;;;;;10578031;28;20084;-55
2021/11/22 09:24:16;;;;;;;1.60;0.25;;;18.90;64.00;;;;;;10559755;28;20485;-56
2021/11/22 09:29:17;;;;;;;4.38;0.85;;;18.90;63.40;;;;;;10561257;28;20126;-57
2021/11/22 09:34:17;;;;;;;0.73;0.30;;;18.80;63.70;;;;;;10577983;28;20052;-56
2021/11/22 09:39:20;;;;;;;2.15;0.30;;;18.70;64.10;;;;;;10577728;28;20649;-56
2021/11/22 09:44:23;;;;;;;0.60;0.30;;;18.60;64.40;;;;;;10560902;28;20418;-55
2021/11/22 09:49:24;;;;;;;1.30;0.30;;;18.40;65.70;;;;;;10543784;28;20372;-55
2021/11/22 09:54:24;;;;;;;0.40;0.20;;;18.30;66.00;;;;;;10560245;28;20055;-55
2021/11/22 09:59:25;;;;;;;2.05;0.30;;;18.20;66.80;;;;;;10578408;28;20026;-55
2021/11/22 10:04:31;;;;;;;1.50;0.40;;;18.20;67.10;;;;;;10578872;28;20502;-55
2021/11/22 10:09:35;;;;;;;0.90;0.20;;;18.10;67.50;;;;;;10558936;28;20390;-56
2021/11/22 10:15:02;;;;;;;1.27;0.30;;;18.00;67.20;;;;;;10582761;28;20034;-55
2021/11/22 10:20:06;;;;;;;1.02;0.38;;;18.10;67.30;;;;;;10565922;28;20046;-55
2021/11/22 10:25:38;;;;;;;0.52;0.20;;;18.00;67.20;;;;;;10572705;28;20035;-55
2021/11/22 10:31:09;;;;;;;0.70;0.22;;;18.10;67.40;;;;;;10584532;28;20059;-55
2021/11/22 10:36:18;;;;;;;0.95;0.20;;;18.00;67.60;;;;;;10582158;28;20039;-56
2021/11/22 10:41:36;;;;;;;0.10;0.10;;;18.00;67.80;;;;;;10566608;28;20467;-55
2021/11/22 10:46:47;;;;;;;0.93;0.40;;;18.00;68.00;;;;;;10585182;28;20027;-54
2021/11/22 10:51:50;;;;;;;1.48;0.30;;;18.00;68.00;;;;;;10584717;28;20019;-56
2021/11/22 10:56:53;;;;;;;0.60;0.20;;;17.90;68.10;;;;;;10549539;28;20024;-54
2021/11/22 11:01:56;;;;;;;1.20;0.20;;;18.00;68.20;;;;;;10566543;28;20480;-55
2021/11/22 11:07:03;;;;;;;1.67;0.30;;;18.00;68.30;;;;;;10583415;28;20617;-53
2021/11/22 11:12:14;;;;;;;0.43;0.30;;;17.90;68.10;;;;;;10566053;28;20117;-56
2021/11/22 11:17:35;;;;;;;0.82;0.20;;;17.90;68.30;;;;;;10583696;28;20043;-54
2021/11/22 11:22:36;;;;;;;0.50;0.20;;;18.00;68.60;;;;;;10566172;28;20028;-55
2021/11/22 11:27:43;;;;;;;1.02;0.30;;;17.90;68.80;;;;;;10582664;28;20095;-55
2021/11/22 11:32:45;;;;;;;0.95;0.38;;;17.90;68.60;;;;;;10569302;28;20745;-55
2021/11/22 11:38:18;;;;;;;1.08;0.28;;;17.90;68.70;;;;;;10565048;28;20031;-55
2021/11/22 11:43:49;;;;;;;0.75;0.30;;;18.00;68.60;;;;;;10582737;28;20368;-56
2021/11/22 11:49:06;;;;;;;0.50;0.30;;;18.00;68.50;;;;;;10582396;28;20276;-56
2021/11/22 11:54:23;;;;;;;0.63;0.20;;;18.00;68.20;;;;;;10582289;28;20144;-56
2021/11/22 11:59:45;;;;;;;1.00;0.20;;;18.00;68.20;;;;;;10563810;28;20023;-60
2021/11/22 12:04:52;;;;;;;0.90;0.40;;;18.10;68.10;;;;;;10563809;28;20033;-56
2021/11/22 12:10:14;;;;;;;1.23;0.13;;;18.00;68.50;;;;;;10581594;28;20019;-55
2021/11/22 12:15:25;;;;;;;1.13;0.20;;;18.00;68.90;;;;;;10581270;28;20032;-55
2021/11/22 12:20:26;;;;;;;1.80;0.20;;;18.00;68.80;;;;;;10581157;28;20179;-55
2021/11/22 12:25:39;;;;;;;1.13;0.35;;;17.90;69.00;;;;;;10581020;28;20040;-52
2021/11/22 12:30:43;;;;;;;0.45;0.22;;;17.90;69.20;;;;;;10567506;28;20036;-55
2021/11/22 12:35:44;;;;;;;0.50;0.20;;;17.90;69.20;;;;;;10578357;28;20071;-55
2021/11/22 12:40:48;;;;;;;1.95;0.20;;;17.80;69.10;;;;;;10562187;28;20379;-55
2021/11/22 12:45:58;;;;;;;0.30;0.10;;;17.70;69.30;;;;;;10580068;28;20035;-56
2021/11/22 12:51:04;;;;;;;0.40;0.20;;;17.60;69.60;;;;;;10579952;28;20031;-55
2021/11/22 12:56:05;;;;;;;0.17;0.05;;;17.50;69.50;;;;;;10579622;28;20035;-53
2021/11/22 13:01:06;;;;;;;0.88;0.20;;;17.50;69.70;;;;;;10561438;28;20024;-55
2021/11/22 13:06:16;;;;;;;0.40;0.20;;;17.50;69.80;;;;;;10561419;28;20486;-55
2021/11/22 13:11:29;;;;;;;0.20;0.20;;;17.40;69.90;;;;;;10562402;28;20063;-56
2021/11/22 13:16:30;;;;;;;0.28;0.10;;;17.40;69.90;;;;;;10579225;28;20486;-54
2021/11/22 13:21:49;;;;;;;0.40;0.30;;;17.30;69.40;;;;;;10561140;28;20053;-56
2021/11/22 13:26:50;;;;;;;0.45;0.25;;;17.40;69.30;;;;;;10578942;28;20030;-55
2021/11/22 13:31:54;;;;;;;0.50;0.20;;;17.50;69.00;;;;;;10530138;28;20028;-55
2021/11/22 13:37:03;;;;;;;0.40;0.20;;;17.50;68.70;;;;;;10543732;28;20514;-53
2021/11/22 13:42:12;;;;;;;0.85;0.20;;;17.70;68.00;;;;;;10561561;28;20380;-55
2021/11/22 13:47:28;;;;;;;0.10;0.10;;;17.80;67.70;;;;;;10581211;28;20055;-55
2021/11/22 13:52:29;;;;;;;0.30;0.15;;;17.90;67.60;;;;;;10587195;28;20019;-54
2021/11/22 13:57:30;;;;;;;0.20;0.20;;;17.90;67.50;;;;;;10586885;28;20383;-55
2021/11/22 14:02:31;;;;;;;0.13;0.10;;;18.00;67.20;;;;;;10586846;28;20027;-55
2021/11/22 14:07:47;;;;;;;1.77;0.20;;;18.00;67.10;;;;;;10583608;28;20038;-56
2021/11/22 14:12:48;;;;;;;0.17;0.10;;;18.00;66.90;;;;;;10568198;28;20372;-56
2021/11/22 14:17:51;;;;;;;0.28;0.10;;;18.00;66.90;;;;;;10586054;28;20135;-56
2021/11/22 14:23:03;;;;;;;0.30;0.17;;;18.10;67.00;;;;;;10585836;28;20035;-56
2021/11/22 14:28:18;;;;;;;0.45;0.10;;;18.10;66.80;;;;;;10586259;28;20028;-58
2021/11/22 14:33:27;;;;;;;0.20;0.10;;;18.10;66.80;;;;;;10570354;28;20044;-54
2021/11/22 14:38:37;;;;;;;0.20;0.10;;;18.10;66.70;;;;;;10565897;28;20032;-55
2021/11/22 14:43:47;;;;;;;0.40;0.10;;;18.10;66.50;;;;;;10584879;28;20015;-55
2021/11/22 14:48:51;;;;;;;0.22;0.10;;;18.10;66.60;;;;;;10567472;28;20027;-56
2021/11/22 14:54:12;;;;;;;0.57;0.17;;;18.10;66.60;;;;;;10567403;28;20028;-55
2021/11/22 14:59:31;;;;;;;0.30;0.20;;;18.10;66.70;;;;;;10583351;28;20122;-55
2021/11/22 15:04:38;;;;;;;0.15;0.15;;;18.10;66.60;;;;;;10562551;28;20483;-55
2021/11/22 15:09:54;;;;;;;0.10;0.10;;;18.20;66.50;;;;;;10582781;28;20057;-55
2021/11/22 15:15:00;;;;;;;0.38;0.15;;;18.10;66.40;;;;;;10582544;28;20117;-55
2021/11/22 15:20:06;;;;;;;0.15;0.10;;;18.20;66.30;;;;;;10564691;28;20483;-55
2021/11/22 15:25:12;;;;;;;0.30;0.10;;;18.10;66.30;;;;;;10564129;28;20031;-55
2021/11/22 15:30:19;;;;;;;0.15;0.10;;;18.20;66.30;;;;;;10582249;28;20034;-55
2021/11/22 15:35:20;;;;;;;0.05;0.03;;;18.20;66.20;;;;;;10582899;28;20395;-56
2021/11/22 15:40:22;;;;;;;0.20;0.10;;;18.20;66.30;;;;;;10564536;28;20055;-55
2021/11/22 15:45:22;;;;;;;0.57;0.20;;;18.30;66.80;;;;;;10582183;28;20463;-55
2021/11/22 15:50:23;;;;;;;0.82;0.22;;;18.20;66.20;;;;;;10556467;28;20043;-55
2021/11/22 15:55:24;;;;;;;2.45;0.38;;;18.20;66.20;;;;;;10570980;28;20063;-55
2021/11/22 16:00:25;;;;;;;1.45;0.20;;;18.20;66.00;;;;;;10578586;28;20024;-53
2021/11/22 16:05:25;;;;;;;1.45;0.20;;;18.20;65.80;;;;;;10562807;28;20023;-55
2021/11/22 16:10:26;;;;;;;1.90;0.32;;;18.20;65.90;;;;;;10580461;28;20039;-55
2021/11/22 16:15:27;;;;;;;1.58;0.28;;;18.10;66.10;;;;;;10571099;28;20020;-56
2021/11/22 16:20:28;;;;;;;2.15;0.25;;;18.10;65.80;;;;;;10581073;28;20019;-55
2021/11/22 16:25:28;;;;;;;1.92;0.25;;;18.10;65.90;;;;;;10563467;28;20114;-56
2021/11/22 16:30:29;;;;;;;5.72;0.95;;;18.10;65.90;;;;;;10581523;28;20061;-54
2021/11/22 16:35:30;;;;;;;1.27;0.20;;;18.10;65.80;;;;;;10580521;28;20051;-55
2021/11/22 16:40:31;;;;;;;1.25;0.30;;;18.10;65.90;;;;;;10581265;28;20020;-55
2021/11/22 16:45:32;;;;;;;0.65;0.20;;;18.10;65.80;;;;;;10581192;28;20103;-56
2021/11/22 16:50:33;;;;;;;1.23;0.20;;;18.10;65.70;;;;;;10578588;28;20531;-55
2021/11/22 16:55:34;;;;;;;6.65;1.40;;;18.20;65.70;;;;;;10558331;27;20106;-54
2021/11/22 17:00:36;;;;;;;5.68;0.70;;;18.10;65.50;;;;;;10578793;28;20102;-56
2021/11/22 17:05:38;;;;;;;4.07;0.60;;;18.20;65.70;;;;;;10578380;28;20410;-56
2021/11/22 17:10:39;;;;;;;5.32;0.60;;;18.30;65.30;;;;;;10580132;28;20467;-56
2021/11/22 17:15:40;;;;;;;9.48;1.30;;;18.30;65.30;;;;;;10544328;28;20028;-55
2021/11/22 17:20:41;;;;;;;5.10;0.70;;;18.30;66.90;;;;;;10579801;28;20399;-54
2021/11/22 17:25:42;;;;;;;8.98;1.35;;;18.30;67.60;;;;;;10579851;28;20034;-56
2021/11/22 17:30:43;;;;;;;6.82;1.27;;;18.30;67.60;;;;;;10561869;28;20024;-55
2021/11/22 17:35:44;;;;;;;9.13;1.10;;;18.30;67.70;;;;;;10578107;28;20123;-56
2021/11/22 17:40:45;;;;;;;9.57;1.67;;;18.40;67.00;;;;;;10579751;28;20024;-56
2021/11/22 17:45:45;;;;;;;14.75;1.17;;;18.30;67.00;;;;;;10579299;28;20034;-56
2021/11/22 17:50:46;;;;;;;11.30;1.63;;;18.20;66.40;;;;;;10579656;28;20024;-56
2021/11/22 17:55:50;;;;;;;20.48;2.38;;;18.20;66.60;;;;;;10560898;28;20035;-57
2021/11/22 18:00:52;;;;;;;28.25;2.97;;;18.30;66.50;;;;;;10560375;28;20391;-56
2021/11/22 18:05:53;;;;;;;21.80;3.25;;;18.40;66.60;;;;;;10560829;28;20066;-55
2021/11/22 18:10:56;;;;;;;24.70;3.13;;;18.30;66.50;;;;;;10579099;28;20066;-56
2021/11/22 18:15:57;;;;;;;15.88;2.60;;;18.30;66.70;;;;;;10561102;28;20084;-56
2021/11/22 18:20:58;;;;;;;15.95;2.15;;;18.20;66.50;;;;;;10578880;28;20054;-56
2021/11/22 18:25:58;;;;;;;13.65;2.22;;;18.30;66.30;;;;;;10578637;28;20115;-56
2021/11/22 18:30:59;;;;;;;8.93;1.92;;;18.30;66.00;;;;;;10578766;28;20027;-55
2021/11/22 18:36:01;;;;;;;13.60;2.25;;;18.30;65.90;;;;;;10565231;28;20127;-56
2021/11/22 18:41:02;;;;;;;7.03;1.80;;;18.30;66.00;;;;;;10585218;28;20023;-55
2021/11/22 18:46:04;;;;;;;6.78;1.33;;;18.30;65.90;;;;;;10585414;28;20023;-56
2021/11/22 18:51:05;;;;;;;8.95;1.20;;;18.20;66.20;;;;;;10585624;28;20031;-56
2021/11/22 18:56:06;;;;;;;6.53;1.70;;;18.20;66.50;;;;;;10585306;28;20538;-54
2021/11/22 19:01:06;;;;;;;9.50;2.22;;;18.10;67.20;;;;;;10566958;28;20127;-56
2021/11/22 19:06:07;;;;;;;8.88;1.77;;;18.20;66.80;;;;;;10582588;28;20094;-57
2021/11/22 19:11:09;;;;;;;10.65;1.13;;;18.30;66.30;;;;;;10553519;28;20023;-56
2021/11/22 19:16:11;;;;;;;5.47;1.30;;;18.30;65.80;;;;;;10557187;28;20119;-55
2021/11/22 19:21:11;;;;;;;6.85;1.20;;;18.40;65.60;;;;;;10565157;28;20027;-58
2021/11/22 19:26:12;;;;;;;5.63;1.40;;;18.40;65.40;;;;;;10545252;28;20371;-56
2021/11/22 19:31:13;;;;;;;5.95;1.35;;;18.40;65.30;;;;;;10557238;28;20031;-55
2021/11/22 19:36:14;;;;;;;3.40;0.82;;;18.40;65.40;;;;;;10576237;28;20051;-56
2021/11/22 19:41:16;;;;;;;8.30;1.48;;;18.40;65.30;;;;;;10574179;28;20068;-56
2021/11/22 19:46:18;;;;;;;9.82;1.25;;;18.40;65.30;;;;;;10571260;28;20039;-57
2021/11/22 19:51:19;;;;;;;4.32;1.10;;;18.50;65.10;;;;;;10560117;28;20034;-57
2021/11/22 19:56:20;;;;;;;4.60;0.77;;;18.50;65.10;;;;;;10547499;28;20035;-57
2021/11/22 20:01:21;;;;;;;7.43;1.27;;;18.60;64.70;;;;;;10562185;28;20024;-56
2021/11/22 20:06:22;;;;;;;6.03;1.38;;;18.70;64.40;;;;;;10550346;28;20412;-57
2021/11/22 20:11:22;;;;;;;3.63;0.90;;;18.60;64.60;;;;;;10557272;28;20039;-56
2021/11/22 20:16:25;;;;;;;7.50;1.67;;;18.50;65.20;;;;;;10570503;28;20036;-55
2021/11/22 20:21:27;;;;;;;3.80;0.70;;;18.30;65.50;;;;;;10579501;28;20028;-56
2021/11/22 20:26:30;;;;;;;2.63;0.73;;;18.30;65.90;;;;;;10580986;28;20085;-56
2021/11/22 20:31:32;;;;;;;4.43;1.02;;;18.10;66.10;;;;;;10577592;28;20072;-56
2021/11/22 20:36:33;;;;;;;4.78;1.17;;;18.00;66.60;;;;;;10551426;28;20046;-56
2021/11/22 20:41:35;;;;;;;7.97;0.77;;;17.90;66.80;;;;;;10580140;28;20019;-57
2021/11/22 20:46:36;;;;;;;6.93;1.02;;;17.90;67.10;;;;;;10562377;28;20046;-57
2021/11/22 20:51:37;;;;;;;3.20;0.63;;;17.80;67.00;;;;;;10562349;28;20042;-55
2021/11/22 20:56:39;;;;;;;2.28;0.63;;;17.70;67.00;;;;;;10580349;28;20076;-58
2021/11/22 21:01:40;;;;;;;3.38;1.15;;;17.60;67.00;;;;;;10580554;28;20534;-57
2021/11/22 21:06:41;;;;;;;2.60;0.77;;;17.50;67.00;;;;;;10580065;28;20069;-57
2021/11/22 21:11:41;;;;;;;5.63;1.02;;;17.40;66.90;;;;;;10579797;28;20080;-57
2021/11/22 21:16:46;;;;;;;5.13;1.05;;;17.40;67.00;;;;;;10561555;28;20065;-57
2021/11/22 21:21:47;;;;;;;4.28;1.10;;;17.30;66.90;;;;;;10545828;28;20423;-57
2021/11/22 21:26:50;;;;;;;2.20;0.85;;;17.20;66.80;;;;;;10579683;28;20367;-56
2021/11/22 21:31:52;;;;;;;3.92;1.00;;;17.20;66.70;;;;;;10578111;28;20027;-57
2021/11/22 21:36:52;;;;;;;1.75;0.60;;;17.20;66.70;;;;;;10579113;28;20044;-57
2021/11/22 21:41:54;;;;;;;2.47;0.88;;;17.20;66.50;;;;;;10561363;28;20539;-57
2021/11/22 21:46:55;;;;;;;3.45;1.50;;;17.30;66.30;;;;;;10579221;28;20077;-57
2021/11/22 21:51:56;;;;;;;1.88;0.80;;;17.40;66.00;;;;;;10579192;28;20084;-56
2021/11/22 21:56:57;;;;;;;2.60;0.70;;;17.40;65.80;;;;;;10544193;28;20417;-56
2021/11/22 22:01:58;;;;;;;2.38;0.80;;;17.50;65.40;;;;;;10560742;28;20031;-56
2021/11/22 22:06:59;;;;;;;2.22;0.50;;;17.50;65.30;;;;;;10578779;28;20036;-56
2021/11/22 22:12:03;;;;;;;2.10;0.93;;;17.60;65.00;;;;;;10568890;28;20403;-56
2021/11/22 22:17:06;;;;;;;2.58;0.80;;;17.60;64.70;;;;;;10568172;28;20032;-56
2021/11/22 22:22:07;;;;;;;1.20;0.70;;;17.60;64.60;;;;;;10585176;28;20022;-57
2021/11/22 22:27:09;;;;;;;1.23;0.70;;;17.60;64.50;;;;;;10568197;28;20127;-57
2021/11/22 22:32:10;;;;;;;2.90;0.88;;;17.60;64.50;;;;;;10586115;28;20039;-56
2021/11/22 22:37:11;;;;;;;1.20;0.68;;;17.60;64.20;;;;;;10567398;28;20494;-56
2021/11/22 22:42:11;;;;;;;1.70;0.85;;;17.60;64.30;;;;;;10567437;28;20559;-56
2021/11/22 22:47:12;;;;;;;2.25;0.80;;;17.60;64.20;;;;;;10550513;28;20399;-56
2021/11/22 22:52:13;;;;;;;1.52;0.70;;;17.60;64.10;;;;;;10585249;28;20440;-56
2021/11/22 22:57:14;;;;;;;1.27;0.75;;;17.50;64.00;;;;;;10566494;28;20028;-56
2021/11/22 23:02:15;;;;;;;2.33;0.88;;;17.60;63.80;;;;;;10584748;28;20077;-55
2021/11/22 23:07:16;;;;;;;1.95;0.85;;;17.60;63.80;;;;;;10584625;28;20031;-57
2021/11/22 23:12:17;;;;;;;1.17;0.60;;;17.50;63.80;;;;;;10566316;28;20022;-57
2021/11/22 23:17:18;;;;;;;1.15;0.77;;;17.50;63.60;;;;;;10584245;28;20475;-56
2021/11/22 23:22:18;;;;;;;1.15;0.65;;;17.60;63.60;;;;;;10565534;28;20041;-55
2021/11/22 23:27:19;;;;;;;1.63;0.75;;;17.60;63.30;;;;;;10584043;28;20114;-57
2021/11/22 23:32:20;;;;;;;1.05;0.70;;;17.60;63.40;;;;;;10583587;28;20128;-56
2021/11/22 23:37:21;;;;;;;2.75;0.98;;;17.70;63.10;;;;;;10583045;28;20040;-56
2021/11/22 23:42:22;;;;;;;2.25;0.77;;;17.60;62.90;;;;;;10565017;28;20027;-56
2021/11/22 23:47:23;;;;;;;1.17;0.80;;;17.60;62.90;;;;;;10582947;28;20092;-55
2021/11/22 23:52:23;;;;;;;1.30;0.80;;;17.60;63.10;;;;;;10582965;28;20396;-56
2021/11/22 23:57:24;;;;;;;2.25;1.00;;;17.60;62.90;;;;;;10564245;28;20027;-57
